createdAt,value
2019-03-12T00:00:32.687Z,98.60
2019-03-12T00:03:02.563Z,98.70
2019-03-12T00:05:32.262Z,98.40
2019-03-12T00:08:02.045Z,98.50
2019-03-12T00:10:31.854Z,98.40
2019-03-12T00:13:01.649Z,98.30
2019-03-12T00:15:31.533Z,98.00
2019-03-12T00:18:01.494Z,97.90
2019-03-12T00:20:31.692Z,97.80
2019-03-12T00:23:01.464Z,97.80
2019-03-12T00:25:31.551Z,97.80
2019-03-12T00:28:01.332Z,97.50
2019-03-12T00:30:31.360Z,97.30
2019-03-12T00:33:01.291Z,97.10
2019-03-12T00:35:31.194Z,97.50
2019-03-12T00:38:01.403Z,97.40
2019-03-12T00:40:31.211Z,97.00
2019-03-12T00:43:07.744Z,97.50
2019-03-12T00:45:37.742Z,97.50
2019-03-12T00:48:07.521Z,97.40
2019-03-12T00:50:37.294Z,97.30
2019-03-12T00:53:07.636Z,97.30
2019-03-12T00:55:37.623Z,97.10
2019-03-12T00:58:07.579Z,97.00
2019-03-12T01:00:37.769Z,97.40
2019-03-12T01:03:07.639Z,97.10
2019-03-12T01:05:37.417Z,97.30
2019-03-12T01:08:07.708Z,97.20
2019-03-12T01:10:37.816Z,97.30
2019-03-12T01:13:15.603Z,97.40
2019-03-12T01:15:45.884Z,97.10
2019-03-12T01:18:15.659Z,97.00
2019-03-12T01:20:45.682Z,97.10
2019-03-12T01:23:15.993Z,97.20
2019-03-12T01:25:45.761Z,97.10
2019-03-12T01:28:15.770Z,96.80
2019-03-12T01:30:45.967Z,96.90
2019-03-12T01:33:16.924Z,96.70
2019-03-12T01:35:47.337Z,96.90
2019-03-12T01:38:17.090Z,97.00
2019-03-12T01:40:46.862Z,97.10
2019-03-12T01:43:17.064Z,97.00
2019-03-12T01:45:46.839Z,97.10
2019-03-12T01:48:35.915Z,97.10
2019-03-12T01:51:05.683Z,97.20
2019-03-12T01:53:35.627Z,97.40
2019-03-12T01:56:05.448Z,97.60
2019-03-12T01:58:35.759Z,97.60
2019-03-12T02:01:05.539Z,97.90
2019-03-12T02:03:35.574Z,98.00
2019-03-12T02:06:05.783Z,98.10
2019-03-12T02:08:35.558Z,98.20
2019-03-12T02:11:05.670Z,98.20
2019-03-12T02:13:35.450Z,98.00
2019-03-12T02:16:05.679Z,98.10
2019-03-12T02:18:35.476Z,98.10
2019-03-12T02:21:05.315Z,98.00
2019-03-12T02:23:35.177Z,98.10
2019-03-12T02:26:05.133Z,98.30
2019-03-12T02:28:35.279Z,98.00
2019-03-12T02:31:05.174Z,97.90
2019-03-12T02:33:35.120Z,98.00
2019-03-12T02:36:05.340Z,98.20
2019-03-12T02:38:35.155Z,98.30
2019-03-12T02:41:05.032Z,98.40
2019-03-12T02:43:34.998Z,98.30
2019-03-12T02:46:04.884Z,98.40
2019-03-12T02:48:34.928Z,98.40
2019-03-12T02:51:04.719Z,98.50
2019-03-12T02:53:34.655Z,98.60
2019-03-12T02:56:04.709Z,98.70
2019-03-12T02:58:34.796Z,98.70
2019-03-12T03:01:04.593Z,99.10
2019-03-12T03:03:34.729Z,99.40
2019-03-12T03:06:08.580Z,99.70
2019-03-12T03:08:38.428Z,99.90
2019-03-12T03:11:08.247Z,99.90
2019-03-12T03:13:38.447Z,99.90
2019-03-12T03:16:08.211Z,99.90
2019-03-12T03:18:38.101Z,99.90
2019-03-12T03:21:08.311Z,99.90
2019-03-12T03:23:38.244Z,99.90
2019-03-12T03:26:08.031Z,99.90
2019-03-12T03:28:38.279Z,99.90
2019-03-12T03:31:17.149Z,99.90
2019-03-12T03:33:47.111Z,99.90
2019-03-12T03:36:16.875Z,99.90
2019-03-12T03:38:46.675Z,99.90
2019-03-12T03:41:16.464Z,99.90
2019-03-12T03:43:46.718Z,99.90
2019-03-12T03:46:16.540Z,99.90
2019-03-12T03:48:46.297Z,99.90
2019-03-12T03:51:16.348Z,99.90
2019-03-12T03:53:46.158Z,99.90
2019-03-12T03:56:15.928Z,99.90
2019-03-12T03:58:46.310Z,99.90
2019-03-12T04:01:16.120Z,99.90
2019-03-12T04:03:45.888Z,99.90
2019-03-12T04:06:16.369Z,99.90
2019-03-12T04:08:46.191Z,99.90
2019-03-12T04:11:16.016Z,99.90
2019-03-12T04:13:46.120Z,99.90
2019-03-12T04:16:15.919Z,99.90
2019-03-12T04:18:45.689Z,99.90
2019-03-12T04:21:16.176Z,99.90
2019-03-12T04:23:45.976Z,99.90
2019-03-12T04:26:15.795Z,99.90
2019-03-12T04:28:45.574Z,99.90
2019-03-12T04:31:15.375Z,99.90
2019-03-12T04:33:59.976Z,99.90
2019-03-12T04:36:29.872Z,99.90
2019-03-12T04:38:59.647Z,99.90
2019-03-12T04:41:29.550Z,99.90
2019-03-12T04:43:59.754Z,99.90
2019-03-12T04:46:29.595Z,99.90
2019-03-12T04:48:59.326Z,99.90
2019-03-12T04:51:29.778Z,99.90
2019-03-12T04:53:59.783Z,99.90
2019-03-12T04:56:29.567Z,99.90
2019-03-12T04:58:59.618Z,99.90
2019-03-12T05:01:29.394Z,99.90
2019-03-12T05:03:59.291Z,99.90
2019-03-12T05:06:29.216Z,99.90
2019-03-12T05:08:58.983Z,99.90
2019-03-12T05:11:28.758Z,99.90
2019-03-12T05:14:37.623Z,99.90
2019-03-12T05:17:07.591Z,99.90
2019-03-12T05:19:37.764Z,99.90
2019-03-12T05:22:07.736Z,99.90
2019-03-12T05:24:37.502Z,99.90
2019-03-12T05:27:07.303Z,99.90
2019-03-12T05:29:37.114Z,99.90
2019-03-12T05:32:06.882Z,99.90
2019-03-12T05:34:36.670Z,99.90
2019-03-12T05:37:06.479Z,99.90
2019-03-12T05:39:36.514Z,99.90
2019-03-12T05:42:06.278Z,99.90
2019-03-12T05:44:36.099Z,99.90
2019-03-12T05:47:08.140Z,99.90
2019-03-12T05:49:37.253Z,99.90
2019-03-12T05:52:07.056Z,99.90
2019-03-12T05:54:38.855Z,99.90
2019-03-12T05:57:08.655Z,99.90
2019-03-12T05:59:38.465Z,99.90
2019-03-12T06:02:08.235Z,99.90
2019-03-12T06:04:38.008Z,99.90
2019-03-12T06:07:07.930Z,99.90
2019-03-12T06:09:38.333Z,99.90
2019-03-12T06:12:08.100Z,99.90
2019-03-12T06:14:37.831Z,99.90
2019-03-12T06:17:07.734Z,99.90
2019-03-12T06:19:37.705Z,99.90
2019-03-12T06:22:11.271Z,99.90
2019-03-12T06:24:39.271Z,99.90
2019-03-12T06:27:09.040Z,99.90
2019-03-12T06:29:39.633Z,99.90
2019-03-12T06:32:11.038Z,99.90
2019-03-12T06:34:42.396Z,99.90
2019-03-12T06:37:20.039Z,99.90
2019-03-12T06:40:07.391Z,99.90
2019-03-12T06:42:45.292Z,99.90
2019-03-12T06:45:16.719Z,99.90
2019-03-12T06:47:48.131Z,99.90
2019-03-12T06:50:31.755Z,99.90
2019-03-12T06:53:09.291Z,99.90
2019-03-12T06:55:57.245Z,99.90
2019-03-12T06:58:31.570Z,99.90
2019-03-12T07:01:02.944Z,99.90
2019-03-12T07:03:50.523Z,99.90
2019-03-12T07:06:34.106Z,99.90
2019-03-12T07:09:14.676Z,99.90
2019-03-12T07:11:46.295Z,99.90
2019-03-12T07:14:23.448Z,99.90
2019-03-12T07:17:03.813Z,99.90
2019-03-12T07:19:38.035Z,99.90
2019-03-12T07:22:09.494Z,99.90
2019-03-12T07:24:47.115Z,99.90
2019-03-12T07:27:18.571Z,99.90
2019-03-12T07:29:52.998Z,99.90
2019-03-12T07:32:27.551Z,99.90
2019-03-12T07:35:14.720Z,99.90
2019-03-12T07:37:46.687Z,99.90
2019-03-12T07:40:24.079Z,99.90
2019-03-12T07:42:55.519Z,99.90
2019-03-12T07:45:30.269Z,99.90
2019-03-12T07:48:05.170Z,99.90
2019-03-12T07:50:52.342Z,99.90
2019-03-12T07:53:29.104Z,99.90
2019-03-12T07:56:00.569Z,99.90
2019-03-12T07:58:40.965Z,99.90
2019-03-12T08:01:28.611Z,99.90
2019-03-12T08:04:02.859Z,99.90
2019-03-12T08:06:50.143Z,99.90
2019-03-12T08:09:21.595Z,99.90
2019-03-12T08:12:05.377Z,99.90
2019-03-12T08:14:48.612Z,99.90
2019-03-12T08:17:35.311Z,99.90
2019-03-12T08:20:26.464Z,99.90
2019-03-12T08:22:58.751Z,99.90
2019-03-12T08:25:33.098Z,99.90
2019-03-12T08:28:16.576Z,99.90
2019-03-12T08:31:02.984Z,99.90
2019-03-12T08:33:50.406Z,99.90
2019-03-12T08:36:34.282Z,99.90
2019-03-12T08:39:08.201Z,99.90
2019-03-12T08:41:39.696Z,99.90
2019-03-12T08:44:17.174Z,99.90
2019-03-12T08:47:04.791Z,99.90
2019-03-12T08:49:51.453Z,99.90
2019-03-12T08:52:38.104Z,99.90
2019-03-12T08:55:17.335Z,99.90
2019-03-12T08:57:51.871Z,99.90
2019-03-12T09:00:29.507Z,99.90
2019-03-12T09:03:07.240Z,99.90
2019-03-12T09:05:44.655Z,99.90
2019-03-12T09:08:30.866Z,99.90
2019-03-12T09:11:05.731Z,99.90
2019-03-12T09:13:43.014Z,99.90
2019-03-12T09:16:26.716Z,99.90
2019-03-12T09:19:16.004Z,99.90
2019-03-12T09:22:04.047Z,99.90
2019-03-12T09:24:50.547Z,99.90
2019-03-12T09:27:33.655Z,99.90
2019-03-12T09:30:15.575Z,99.90
2019-03-12T09:33:00.061Z,99.90
2019-03-12T09:35:35.146Z,99.90
2019-03-12T09:38:15.736Z,99.90
2019-03-12T09:41:02.055Z,99.90
2019-03-12T09:43:42.982Z,99.90
2019-03-12T09:46:17.929Z,99.90
2019-03-12T09:48:52.740Z,99.90
2019-03-12T09:51:33.830Z,99.90
2019-03-12T09:54:08.037Z,99.90
2019-03-12T09:56:42.515Z,99.90
2019-03-12T09:59:25.874Z,99.90
2019-03-12T10:02:03.047Z,99.90
2019-03-12T10:04:40.307Z,99.90
2019-03-12T10:07:29.751Z,99.90
2019-03-12T10:10:10.192Z,99.90
2019-03-12T10:12:58.115Z,99.90
2019-03-12T10:15:44.847Z,99.90
2019-03-12T10:18:16.295Z,99.90
2019-03-12T10:20:48.414Z,99.90
2019-03-12T10:23:35.975Z,99.90
2019-03-12T10:26:23.935Z,99.90
2019-03-12T10:29:01.352Z,99.20
2019-03-12T10:31:41.941Z,99.00
2019-03-12T10:34:29.653Z,99.90
2019-03-12T10:37:16.414Z,99.90
2019-03-12T10:40:10.957Z,99.70
2019-03-12T10:43:00.895Z,99.80
2019-03-12T10:45:49.581Z,99.90
2019-03-12T10:48:19.419Z,99.90
2019-03-12T10:50:49.494Z,99.90
2019-03-12T10:53:19.551Z,99.90
2019-03-12T10:55:49.407Z,99.70
2019-03-12T10:58:19.179Z,99.90
2019-03-12T11:00:49.448Z,99.40
2019-03-12T11:03:19.216Z,99.90
2019-03-12T11:05:49.034Z,99.90
2019-03-12T11:08:19.049Z,99.90
2019-03-12T11:10:48.829Z,99.90
2019-03-12T11:13:18.595Z,99.90
2019-03-12T11:15:49.022Z,99.90
2019-03-12T11:18:18.808Z,99.90
2019-03-12T11:20:48.658Z,99.90
2019-03-12T11:23:18.839Z,99.90
2019-03-12T11:25:48.715Z,99.90
2019-03-12T11:28:18.480Z,99.90
2019-03-12T11:30:51.070Z,99.90
2019-03-12T11:33:23.465Z,99.90
2019-03-12T11:35:53.378Z,99.50
2019-03-12T11:38:23.640Z,99.20
2019-03-12T11:40:53.432Z,99.20
2019-03-12T11:43:23.255Z,99.90
2019-03-12T11:45:53.523Z,99.90
2019-03-12T11:48:23.332Z,99.90
2019-03-12T11:50:53.076Z,99.90
2019-03-12T11:53:23.579Z,99.90
2019-03-12T11:55:54.126Z,99.90
2019-03-12T11:58:23.912Z,99.90
2019-03-12T12:00:55.313Z,99.90
2019-03-12T12:03:25.530Z,99.90
2019-03-12T12:05:55.371Z,99.90
2019-03-12T12:08:25.541Z,99.90
2019-03-12T12:10:55.290Z,99.90
2019-03-12T12:13:25.456Z,99.90
2019-03-12T12:15:55.246Z,99.50
2019-03-12T12:18:25.017Z,99.80
2019-03-12T12:20:55.297Z,98.70
2019-03-12T12:26:38.965Z,99.70
2019-03-12T12:29:27.266Z,99.80
2019-03-12T12:32:15.511Z,99.90
2019-03-12T12:35:05.510Z,98.80
2019-03-12T12:37:53.668Z,99.10
2019-03-12T12:40:42.010Z,98.90
2019-03-12T12:43:30.360Z,99.30
2019-03-12T12:46:19.860Z,99.60
2019-03-12T12:49:08.071Z,99.30
2019-03-12T12:51:56.388Z,98.60
2019-03-12T12:54:44.319Z,99.00
2019-03-12T12:57:32.641Z,98.50
2019-03-12T13:00:22.734Z,98.90
2019-03-12T13:03:10.979Z,98.90
2019-03-12T13:05:59.492Z,99.00
2019-03-12T13:08:47.854Z,98.90
2019-03-12T13:11:36.506Z,97.90
2019-03-12T13:14:26.576Z,98.80
2019-03-12T13:17:14.937Z,98.80
2019-03-12T13:20:06.216Z,98.30
2019-03-12T13:22:54.983Z,99.10
2019-03-12T13:25:43.810Z,98.30
2019-03-12T13:28:32.232Z,97.80
2019-03-12T13:31:21.020Z,97.40
2019-03-12T13:34:09.217Z,97.20
2019-03-12T13:36:59.167Z,97.40
2019-03-12T13:39:47.422Z,98.00
2019-03-12T13:42:35.729Z,98.50
2019-03-12T13:45:26.112Z,97.70
2019-03-12T13:48:16.193Z,97.20
2019-03-12T13:51:05.381Z,97.60
2019-03-12T13:53:53.707Z,97.40
2019-03-12T13:56:42.376Z,97.60
2019-03-12T13:59:30.571Z,97.30
2019-03-12T14:02:19.184Z,97.30
2019-03-12T14:05:09.769Z,96.60
2019-03-12T14:07:58.128Z,97.20
2019-03-12T14:10:46.562Z,96.70
2019-03-12T14:13:34.768Z,96.70
2019-03-12T14:16:23.258Z,97.10
2019-03-12T14:19:12.545Z,96.10
2019-03-12T14:22:02.619Z,96.30
2019-03-12T14:24:50.774Z,96.70
2019-03-12T14:27:39.645Z,96.50
2019-03-12T14:30:28.291Z,95.40
2019-03-12T14:33:16.252Z,95.50
2019-03-12T14:36:04.614Z,95.60
2019-03-12T14:38:52.868Z,95.80
2019-03-12T14:41:42.827Z,94.80
2019-03-12T14:44:31.683Z,95.00
2019-03-12T14:47:23.261Z,94.30
2019-03-12T14:50:14.719Z,95.60
2019-03-12T14:53:07.507Z,94.20
2019-03-12T14:55:55.038Z,94.60
2019-03-12T14:58:43.050Z,94.10
2019-03-12T15:01:31.212Z,93.70
2019-03-12T15:04:20.221Z,94.20
2019-03-12T15:07:08.516Z,94.20
2019-03-12T15:10:00.367Z,93.80
2019-03-12T15:12:48.927Z,93.90
2019-03-12T15:15:40.262Z,93.10
2019-03-12T15:18:28.189Z,92.90
2019-03-12T15:21:16.387Z,93.20
2019-03-12T15:24:09.087Z,93.50
2019-03-12T15:26:58.658Z,93.40
2019-03-12T15:29:47.118Z,93.80
2019-03-12T15:32:35.219Z,93.60
2019-03-12T15:35:32.148Z,92.90
2019-03-12T15:38:20.938Z,93.20
2019-03-12T15:41:09.329Z,93.00
2019-03-12T15:43:57.760Z,92.50
2019-03-12T15:46:46.230Z,92.80
2019-03-12T15:49:34.268Z,92.90
2019-03-12T15:52:22.798Z,93.00
2019-03-12T15:55:12.293Z,92.80
2019-03-12T15:58:00.650Z,92.70
2019-03-12T16:00:49.059Z,93.00
2019-03-12T16:03:37.408Z,93.70
2019-03-12T16:06:26.527Z,94.00
2019-03-12T16:09:15.288Z,94.20
2019-03-12T16:12:03.769Z,94.50
2019-03-12T16:14:54.211Z,94.90
2019-03-12T16:17:47.889Z,95.10
2019-03-12T16:20:37.049Z,95.30
2019-03-12T16:23:25.389Z,94.80
2019-03-12T16:26:14.778Z,94.80
2019-03-12T16:29:02.949Z,94.90
2019-03-12T16:31:51.128Z,94.50
2019-03-12T16:34:40.379Z,94.90
2019-03-12T16:37:28.630Z,94.80
2019-03-12T16:40:19.525Z,94.40
2019-03-12T16:43:08.099Z,94.40
2019-03-12T16:45:58.973Z,94.00
2019-03-12T16:48:48.950Z,92.90
2019-03-12T16:51:37.305Z,93.20
2019-03-12T16:54:26.239Z,93.40
2019-03-12T16:57:15.748Z,92.50
2019-03-12T17:00:08.414Z,92.20
2019-03-12T17:02:55.280Z,90.80
2019-03-12T17:05:43.798Z,91.30
2019-03-12T17:08:32.352Z,91.60
2019-03-12T17:11:20.638Z,91.00
2019-03-12T17:14:10.579Z,91.40
2019-03-12T17:16:58.869Z,91.60
2019-03-12T17:23:41.686Z,91.50
2019-03-12T17:26:31.750Z,90.90
2019-03-12T17:29:20.248Z,90.60
2019-03-12T17:31:49.958Z,91.60
2019-03-12T17:34:19.728Z,91.20
2019-03-12T17:36:49.680Z,91.70
2019-03-12T17:39:19.687Z,92.00
2019-03-12T17:41:50.693Z,92.00
2019-03-12T17:44:20.496Z,91.90
2019-03-12T17:46:50.792Z,92.10
2019-03-12T17:49:20.807Z,92.20
2019-03-12T17:52:02.359Z,92.00
2019-03-12T17:54:32.375Z,92.20
2019-03-12T17:57:02.118Z,92.40
2019-03-12T17:59:32.171Z,92.60
2019-03-12T18:02:01.948Z,92.80
2019-03-12T18:04:31.663Z,92.80
2019-03-12T18:07:02.230Z,93.10
2019-03-12T18:09:32.002Z,93.10
2019-03-12T18:12:01.776Z,93.60
2019-03-12T18:14:32.285Z,93.50
2019-03-12T18:17:02.104Z,93.50
2019-03-12T18:19:31.877Z,93.50
2019-03-12T18:22:02.092Z,93.40
2019-03-12T18:24:31.802Z,93.20
2019-03-12T18:27:01.498Z,93.00
2019-03-12T18:29:31.350Z,93.30
2019-03-12T18:32:01.119Z,93.60
2019-03-12T18:34:30.825Z,93.50
2019-03-12T18:37:00.631Z,93.30
2019-03-12T18:39:30.403Z,93.20
2019-03-12T18:42:00.992Z,93.20
2019-03-12T18:44:30.847Z,93.30
2019-03-12T18:47:00.862Z,92.80
2019-03-12T18:49:30.875Z,92.30
2019-03-12T18:52:00.832Z,92.40
2019-03-12T18:54:31.275Z,92.40
2019-03-12T18:57:00.983Z,92.50
2019-03-12T18:59:31.104Z,92.50
2019-03-12T19:02:00.894Z,92.80
2019-03-12T19:04:30.931Z,92.70
2019-03-12T19:07:00.922Z,92.50
2019-03-12T19:09:30.966Z,92.60
2019-03-12T19:12:01.077Z,92.20
2019-03-12T19:14:30.940Z,92.20
2019-03-12T19:17:00.931Z,92.40
2019-03-12T19:19:31.041Z,92.30
2019-03-12T19:22:01.235Z,92.40
2019-03-12T19:24:31.704Z,92.40
2019-03-12T19:27:01.816Z,92.60
2019-03-12T19:29:31.599Z,92.70
2019-03-12T19:32:03.243Z,92.40
2019-03-12T19:34:33.057Z,91.80
2019-03-12T19:37:02.979Z,91.40
2019-03-12T19:39:32.776Z,90.90
2019-03-12T19:42:02.765Z,91.20
2019-03-12T19:44:32.821Z,91.50
2019-03-12T19:47:04.558Z,91.10
2019-03-12T19:49:34.078Z,91.10
2019-03-12T19:52:05.156Z,90.80
2019-03-12T19:54:34.930Z,90.60
2019-03-12T19:57:05.589Z,90.40
2019-03-12T19:59:35.391Z,90.40
2019-03-12T20:02:15.546Z,90.50
2019-03-12T20:04:46.753Z,90.40
2019-03-12T20:07:08.275Z,90.50
2019-03-12T20:09:41.063Z,90.60
2019-03-12T20:12:14.819Z,90.30
2019-03-12T20:15:02.253Z,90.30
2019-03-12T20:18:07.210Z,90.30
2019-03-12T20:21:02.743Z,90.40
2019-03-12T20:23:59.615Z,90.30
2019-03-12T20:27:00.135Z,90.40
2019-03-12T20:29:41.379Z,90.50
2019-03-12T20:35:54.147Z,90.50
2019-03-12T20:38:59.958Z,90.60
2019-03-12T20:41:57.960Z,90.50
2019-03-12T20:45:03.568Z,90.60
2019-03-12T20:47:53.066Z,90.70
2019-03-12T20:50:58.774Z,90.50
2019-03-12T20:54:04.315Z,90.60
2019-03-12T20:56:53.466Z,90.80
2019-03-12T20:59:29.160Z,90.70
2019-03-12T21:02:27.723Z,91.00
2019-03-12T21:05:30.840Z,91.10
2019-03-12T21:08:38.743Z,91.10
2019-03-12T21:11:20.276Z,91.20
2019-03-12T21:14:13.220Z,91.10
2019-03-12T21:17:20.018Z,91.40
2019-03-12T21:20:14.944Z,91.40
2019-03-12T21:22:57.082Z,91.40
2019-03-12T21:25:30.444Z,91.40
2019-03-12T21:28:15.753Z,91.40
2019-03-12T21:30:45.600Z,91.30
2019-03-12T21:33:15.888Z,91.50
2019-03-12T21:35:46.046Z,91.20
2019-03-12T21:38:22.475Z,91.30
2019-03-12T21:40:52.722Z,91.50
2019-03-12T21:43:23.071Z,91.50
2019-03-12T21:45:52.867Z,91.70
2019-03-12T21:48:22.727Z,91.70
2019-03-12T21:50:52.759Z,91.90
2019-03-12T21:53:22.699Z,91.90
2019-03-12T21:55:52.934Z,91.90
2019-03-12T21:58:22.737Z,91.80
2019-03-12T22:00:52.963Z,91.80
2019-03-12T22:03:23.104Z,91.40
2019-03-12T22:05:53.170Z,90.90
2019-03-12T22:08:25.304Z,90.40
2019-03-12T22:13:44.383Z,90.80
2019-03-12T22:16:14.551Z,91.00
2019-03-12T22:22:04.939Z,91.20
2019-03-12T22:24:34.778Z,91.40
2019-03-12T22:27:04.924Z,91.40
2019-03-12T22:29:34.948Z,91.30
2019-03-12T22:32:04.793Z,91.50
2019-03-12T22:34:34.562Z,91.90
2019-03-12T22:37:05.050Z,91.90
2019-03-12T22:39:34.828Z,91.50
2019-03-12T22:42:05.244Z,91.40
2019-03-12T22:44:35.435Z,91.20
2019-03-12T22:47:05.260Z,91.10
2019-03-12T22:49:35.032Z,91.30
2019-03-12T22:52:05.246Z,90.90
2019-03-12T22:54:35.125Z,91.10
2019-03-12T22:57:04.929Z,90.90
2019-03-12T22:59:35.119Z,90.90
2019-03-12T23:02:04.892Z,90.70
2019-03-12T23:04:34.601Z,90.70
2019-03-12T23:07:04.410Z,90.70
2019-03-12T23:09:34.556Z,90.80
2019-03-12T23:12:04.333Z,90.80
2019-03-12T23:14:34.136Z,90.70
2019-03-12T23:17:03.907Z,91.40
2019-03-12T23:19:33.683Z,92.60
2019-03-12T23:22:04.133Z,93.10
2019-03-12T23:24:34.355Z,93.50
2019-03-12T23:27:04.455Z,94.10
2019-03-12T23:29:34.489Z,94.10
2019-03-12T23:32:04.482Z,94.00
2019-03-12T23:34:34.708Z,94.60
2019-03-12T23:37:04.514Z,95.70
2019-03-12T23:39:36.795Z,95.80
2019-03-12T23:42:06.988Z,94.80
2019-03-12T23:44:36.795Z,94.60
2019-03-12T23:47:06.570Z,94.00
2019-03-12T23:49:36.339Z,94.30
2019-03-12T23:52:06.723Z,94.20
2019-03-12T23:54:36.543Z,94.80
2019-03-12T23:57:06.376Z,94.90
2019-03-12T23:59:36.579Z,95.90
